createdAt,value
2018-12-16T00:00:23.449Z,27.80
2018-12-16T00:01:23.429Z,28.00
2018-12-16T00:02:23.411Z,28.50
2018-12-16T00:03:23.393Z,27.40
2018-12-16T00:04:23.376Z,27.50
2018-12-16T00:05:23.357Z,28.30
2018-12-16T00:06:23.341Z,27.30
2018-12-16T00:07:23.320Z,27.60
2018-12-16T00:08:23.303Z,27.20
2018-12-16T00:09:23.287Z,27.90
2018-12-16T00:10:23.268Z,28.80
2018-12-16T00:11:23.248Z,28.40
2018-12-16T00:12:23.231Z,28.80
2018-12-16T00:13:23.218Z,29.90
2018-12-16T00:14:23.198Z,28.30
2018-12-16T00:15:23.180Z,27.90
2018-12-16T00:16:23.157Z,29.10
2018-12-16T00:17:23.139Z,29.40
2018-12-16T00:18:23.122Z,28.70
2018-12-16T00:19:23.104Z,28.70
2018-12-16T00:20:23.086Z,28.50
2018-12-16T00:21:23.067Z,28.40
2018-12-16T00:22:29.739Z,28.80
2018-12-16T00:23:23.031Z,29.90
2018-12-16T00:24:23.013Z,28.10
2018-12-16T00:25:23.001Z,29.70
2018-12-16T00:26:22.980Z,29.80
2018-12-16T00:27:22.961Z,29.30
2018-12-16T00:28:22.941Z,29.70
2018-12-16T00:29:22.924Z,29.90
2018-12-16T00:30:22.906Z,29.70
2018-12-16T00:31:22.887Z,28.30
2018-12-16T00:32:22.869Z,27.90
2018-12-16T00:33:22.853Z,28.50
2018-12-16T00:34:22.834Z,28.40
2018-12-16T00:35:22.816Z,29.50
2018-12-16T00:36:22.797Z,27.90
2018-12-16T00:37:22.780Z,27.30
2018-12-16T00:38:22.760Z,28.80
2018-12-16T00:39:22.744Z,27.80
2018-12-16T00:40:22.723Z,27.20
2018-12-16T00:41:22.708Z,27.80
2018-12-16T00:42:22.689Z,26.40
2018-12-16T00:43:22.671Z,27.60
2018-12-16T00:44:22.651Z,28.00
2018-12-16T00:45:22.634Z,27.80
2018-12-16T00:46:22.616Z,28.70
2018-12-16T00:47:22.596Z,27.80
2018-12-16T00:48:22.578Z,29.40
2018-12-16T00:49:22.561Z,28.20
2018-12-16T00:50:22.542Z,29.80
2018-12-16T00:51:22.526Z,28.50
2018-12-16T00:52:22.506Z,28.50
2018-12-16T00:53:22.489Z,29.90
2018-12-16T00:54:22.471Z,30.10
2018-12-16T00:55:22.450Z,29.50
2018-12-16T00:56:22.434Z,30.60
2018-12-16T00:57:22.417Z,30.10
2018-12-16T00:58:22.397Z,30.70
2018-12-16T00:59:22.380Z,30.00
2018-12-16T01:00:22.362Z,29.80
2018-12-16T01:01:22.345Z,29.80
2018-12-16T01:02:22.326Z,30.00
2018-12-16T01:03:22.307Z,30.80
2018-12-16T01:04:22.288Z,30.80
2018-12-16T01:05:22.272Z,29.60
2018-12-16T01:06:22.274Z,30.60
2018-12-16T01:07:22.234Z,29.60
2018-12-16T01:08:22.216Z,29.20
2018-12-16T01:09:22.198Z,29.20
2018-12-16T01:10:22.184Z,28.40
2018-12-16T01:11:22.162Z,28.70
2018-12-16T01:12:22.143Z,29.20
2018-12-16T01:13:22.126Z,28.50
2018-12-16T01:14:22.108Z,30.80
2018-12-16T01:15:22.089Z,29.90
2018-12-16T01:16:22.071Z,28.40
2018-12-16T01:17:22.052Z,28.20
2018-12-16T01:18:22.035Z,30.00
2018-12-16T01:19:22.017Z,29.90
2018-12-16T01:20:21.997Z,29.50
2018-12-16T01:21:21.979Z,30.40
2018-12-16T01:22:21.962Z,30.20
2018-12-16T01:23:21.942Z,32.00
2018-12-16T01:24:21.925Z,31.40
2018-12-16T01:25:21.906Z,31.10
2018-12-16T01:26:21.892Z,32.50
2018-12-16T01:27:21.870Z,30.80
2018-12-16T01:28:21.854Z,32.00
2018-12-16T01:29:21.833Z,32.90
2018-12-16T01:30:21.818Z,30.60
2018-12-16T01:31:21.801Z,31.60
2018-12-16T01:32:21.781Z,31.10
2018-12-16T01:33:21.762Z,31.10
2018-12-16T01:34:21.743Z,32.10
2018-12-16T01:35:21.725Z,32.00
2018-12-16T01:36:21.709Z,30.70
2018-12-16T01:37:21.689Z,30.70
2018-12-16T01:38:21.671Z,32.40
2018-12-16T01:39:21.652Z,31.10
2018-12-16T01:40:21.637Z,31.40
2018-12-16T01:41:21.616Z,31.20
2018-12-16T01:42:21.598Z,34.10
2018-12-16T01:43:21.580Z,31.50
2018-12-16T01:44:21.562Z,31.30
2018-12-16T01:45:21.545Z,30.30
2018-12-16T01:46:21.526Z,30.60
2018-12-16T01:47:21.507Z,31.80
2018-12-16T01:48:21.489Z,30.20
2018-12-16T01:49:21.472Z,30.90
2018-12-16T01:50:21.453Z,31.30
2018-12-16T01:51:21.433Z,31.00
2018-12-16T01:52:21.418Z,32.20
2018-12-16T01:53:21.398Z,32.50
2018-12-16T01:54:21.380Z,30.60
2018-12-16T01:55:21.361Z,32.00
2018-12-16T01:56:21.344Z,30.30
2018-12-16T01:57:21.326Z,31.60
2018-12-16T01:58:21.306Z,31.50
2018-12-16T01:59:21.288Z,32.70
2018-12-16T02:00:21.271Z,32.90
2018-12-16T02:01:21.253Z,32.30
2018-12-16T02:02:21.233Z,31.80
2018-12-16T02:03:21.219Z,30.80
2018-12-16T02:04:21.196Z,30.80
2018-12-16T02:05:21.180Z,30.50
2018-12-16T02:06:21.164Z,30.20
2018-12-16T02:07:21.144Z,30.90
2018-12-16T02:08:21.126Z,30.80
2018-12-16T02:09:21.107Z,32.00
2018-12-16T02:10:21.091Z,30.40
2018-12-16T02:11:21.071Z,30.40
2018-12-16T02:12:21.052Z,31.10
2018-12-16T02:13:21.040Z,32.00
2018-12-16T02:14:21.016Z,31.00
2018-12-16T02:15:20.999Z,32.70
2018-12-16T02:16:20.979Z,30.60
2018-12-16T02:17:20.961Z,29.90
2018-12-16T02:18:20.943Z,32.70
2018-12-16T02:19:20.925Z,31.30
2018-12-16T02:20:20.910Z,31.10
2018-12-16T02:21:20.889Z,32.50
2018-12-16T02:22:20.883Z,32.50
2018-12-16T02:23:20.854Z,31.90
2018-12-16T02:24:20.837Z,31.50
2018-12-16T02:25:20.817Z,32.90
2018-12-16T02:26:20.800Z,33.00
2018-12-16T02:27:20.780Z,31.90
2018-12-16T02:28:20.764Z,33.80
2018-12-16T02:29:20.745Z,33.00
2018-12-16T02:30:20.731Z,32.70
2018-12-16T02:31:20.709Z,31.60
2018-12-16T02:32:20.690Z,32.40
2018-12-16T02:33:20.672Z,32.50
2018-12-16T02:34:20.656Z,31.50
2018-12-16T02:35:20.635Z,32.40
2018-12-16T02:36:20.616Z,33.40
2018-12-16T02:37:20.601Z,33.80
2018-12-16T02:38:20.581Z,33.40
2018-12-16T02:39:20.563Z,32.50
2018-12-16T02:40:20.545Z,33.00
2018-12-16T02:41:20.525Z,32.90
2018-12-16T02:42:20.508Z,33.10
2018-12-16T02:43:20.489Z,32.40
2018-12-16T02:44:20.474Z,32.00
2018-12-16T02:45:20.456Z,31.30
2018-12-16T02:46:20.436Z,32.30
2018-12-16T02:47:20.419Z,33.50
2018-12-16T02:48:20.401Z,34.40
2018-12-16T02:49:20.382Z,32.50
2018-12-16T02:50:20.367Z,32.10
2018-12-16T02:51:20.344Z,32.20
2018-12-16T02:52:20.329Z,32.50
2018-12-16T02:53:20.310Z,32.80
2018-12-16T02:54:20.292Z,32.20
2018-12-16T02:55:20.274Z,30.90
2018-12-16T02:56:20.256Z,32.50
2018-12-16T02:57:20.239Z,32.80
2018-12-16T02:58:20.220Z,33.60
2018-12-16T02:59:20.205Z,34.10
2018-12-16T03:00:20.181Z,32.80
2018-12-16T03:01:20.173Z,32.60
2018-12-16T03:02:20.145Z,33.20
2018-12-16T03:03:20.128Z,32.00
2018-12-16T03:04:20.117Z,33.60
2018-12-16T03:05:20.097Z,32.30
2018-12-16T03:06:20.074Z,33.50
2018-12-16T03:07:20.055Z,33.80
2018-12-16T03:08:20.037Z,32.70
2018-12-16T03:09:20.018Z,34.60
2018-12-16T03:10:20.002Z,33.20
2018-12-16T03:11:19.983Z,35.20
2018-12-16T03:12:19.963Z,34.80
2018-12-16T03:13:19.947Z,34.50
2018-12-16T03:14:19.929Z,35.60
2018-12-16T03:15:19.910Z,34.60
2018-12-16T03:16:19.894Z,35.50
2018-12-16T03:17:19.876Z,33.50
2018-12-16T03:18:19.854Z,33.60
2018-12-16T03:19:19.840Z,33.80
2018-12-16T03:20:19.818Z,33.20
2018-12-16T03:21:19.802Z,32.40
2018-12-16T03:22:19.787Z,33.60
2018-12-16T03:23:19.764Z,34.20
2018-12-16T03:24:19.751Z,33.80
2018-12-16T03:25:19.729Z,34.20
2018-12-16T03:26:19.712Z,32.00
2018-12-16T03:27:19.696Z,32.70
2018-12-16T03:28:19.673Z,32.80
2018-12-16T03:29:19.657Z,32.40
2018-12-16T03:30:19.640Z,32.50
2018-12-16T03:31:19.629Z,31.90
2018-12-16T03:32:19.624Z,32.30
2018-12-16T03:33:19.585Z,33.30
2018-12-16T03:34:19.566Z,34.90
2018-12-16T03:35:19.546Z,33.60
2018-12-16T03:36:19.535Z,34.50
2018-12-16T03:37:19.512Z,34.60
2018-12-16T03:38:19.494Z,33.10
2018-12-16T03:39:19.479Z,33.30
2018-12-16T03:40:19.459Z,34.20
2018-12-16T03:41:19.439Z,34.90
2018-12-16T03:42:19.440Z,33.90
2018-12-16T03:43:19.405Z,34.60
2018-12-16T03:44:19.387Z,33.10
2018-12-16T03:45:19.369Z,32.30
2018-12-16T03:46:19.356Z,32.60
2018-12-16T03:47:19.333Z,32.80
2018-12-16T03:48:19.315Z,33.40
2018-12-16T03:49:19.298Z,33.70
2018-12-16T03:50:19.278Z,32.70
2018-12-16T03:51:19.259Z,34.00
2018-12-16T03:52:19.239Z,31.60
2018-12-16T03:53:19.998Z,33.00
2018-12-16T03:54:19.209Z,31.00
2018-12-16T03:55:19.185Z,33.60
2018-12-16T03:56:19.169Z,33.30
2018-12-16T03:57:19.151Z,32.10
2018-12-16T03:58:19.132Z,31.70
2018-12-16T03:59:19.116Z,31.20
2018-12-16T04:00:19.098Z,31.70
2018-12-16T04:01:19.080Z,31.90
2018-12-16T04:02:19.061Z,33.00
2018-12-16T04:03:19.093Z,33.60
2018-12-16T04:04:19.026Z,33.00
2018-12-16T04:05:19.008Z,31.40
2018-12-16T04:06:18.988Z,33.20
2018-12-16T04:07:18.977Z,31.80
2018-12-16T04:08:18.953Z,31.30
2018-12-16T04:09:18.936Z,30.80
2018-12-16T04:10:18.917Z,32.70
2018-12-16T04:11:18.904Z,31.00
2018-12-16T04:12:18.880Z,33.70
2018-12-16T04:13:18.862Z,33.80
2018-12-16T04:14:18.845Z,34.20
2018-12-16T04:15:18.837Z,34.70
2018-12-16T04:16:18.809Z,34.80
2018-12-16T04:17:18.793Z,33.00
2018-12-16T04:18:18.775Z,35.00
2018-12-16T04:19:18.756Z,34.20
2018-12-16T04:20:18.740Z,32.40
2018-12-16T04:21:18.722Z,31.40
2018-12-16T04:22:18.702Z,30.70
2018-12-16T04:23:18.686Z,33.20
2018-12-16T04:24:18.668Z,31.90
2018-12-16T04:25:18.649Z,33.30
2018-12-16T04:26:18.631Z,32.00
2018-12-16T04:27:18.612Z,32.80
2018-12-16T04:28:18.596Z,32.30
2018-12-16T04:29:18.579Z,33.50
2018-12-16T04:30:18.560Z,34.20
2018-12-16T04:31:18.541Z,34.40
2018-12-16T04:32:18.563Z,34.20
2018-12-16T04:33:18.508Z,32.60
2018-12-16T04:34:18.489Z,34.00
2018-12-16T04:35:18.514Z,34.50
2018-12-16T04:36:18.454Z,34.00
2018-12-16T04:37:18.435Z,34.50
2018-12-16T04:38:18.418Z,32.90
2018-12-16T04:39:18.400Z,33.50
2018-12-16T04:40:18.381Z,32.90
2018-12-16T04:41:18.365Z,34.70
2018-12-16T04:42:18.348Z,34.60
2018-12-16T04:43:18.329Z,34.20
2018-12-16T04:44:18.314Z,31.60
2018-12-16T04:45:18.300Z,33.00
2018-12-16T04:46:18.275Z,34.80
2018-12-16T04:47:18.268Z,34.60
2018-12-16T04:48:18.242Z,32.70
2018-12-16T04:49:18.223Z,34.40
2018-12-16T04:50:18.205Z,33.00
2018-12-16T04:51:18.187Z,34.50
2018-12-16T04:52:18.171Z,34.30
2018-12-16T04:53:18.153Z,33.00
2018-12-16T04:54:18.139Z,32.80
2018-12-16T04:55:18.118Z,33.30
2018-12-16T04:56:18.101Z,32.90
2018-12-16T04:57:18.081Z,33.40
2018-12-16T04:58:18.131Z,34.00
2018-12-16T04:59:18.045Z,34.30
2018-12-16T05:00:18.029Z,35.30
2018-12-16T05:01:18.010Z,34.50
2018-12-16T05:02:17.994Z,35.00
2018-12-16T05:03:17.975Z,34.50
2018-12-16T05:04:17.960Z,31.30
2018-12-16T05:05:17.941Z,33.20
2018-12-16T05:06:19.546Z,33.10
2018-12-16T05:07:17.906Z,34.30
2018-12-16T05:08:17.887Z,34.30
2018-12-16T05:09:17.871Z,33.70
2018-12-16T05:10:17.852Z,34.10
2018-12-16T05:11:17.834Z,33.30
2018-12-16T05:12:17.827Z,34.50
2018-12-16T05:13:17.801Z,34.90
2018-12-16T05:14:17.781Z,32.50
2018-12-16T05:15:17.764Z,32.80
2018-12-16T05:16:17.746Z,32.20
2018-12-16T05:17:17.729Z,31.30
2018-12-16T05:18:17.722Z,32.00
2018-12-16T05:19:17.696Z,32.20
2018-12-16T05:20:17.678Z,33.50
2018-12-16T05:21:17.659Z,34.40
2018-12-16T05:22:17.641Z,34.20
2018-12-16T05:23:17.625Z,33.80
2018-12-16T05:24:17.608Z,33.20
2018-12-16T05:25:17.586Z,34.60
2018-12-16T05:26:17.571Z,33.90
2018-12-16T05:27:17.555Z,33.70
2018-12-16T05:28:17.537Z,32.70
2018-12-16T05:29:17.519Z,33.00
2018-12-16T05:30:17.502Z,31.70
2018-12-16T05:31:17.480Z,30.20
2018-12-16T05:32:17.465Z,32.20
2018-12-16T05:33:17.449Z,32.50
2018-12-16T05:34:17.431Z,33.20
2018-12-16T05:35:17.412Z,33.40
2018-12-16T05:36:17.397Z,33.50
2018-12-16T05:37:17.379Z,33.20
2018-12-16T05:38:17.362Z,31.20
2018-12-16T05:39:17.341Z,30.40
2018-12-16T05:40:17.323Z,29.30
2018-12-16T05:41:17.308Z,32.40
2018-12-16T05:42:17.290Z,32.70
2018-12-16T05:43:17.272Z,32.70
2018-12-16T05:44:17.254Z,33.50
2018-12-16T05:45:17.237Z,32.30
2018-12-16T05:46:17.220Z,31.20
2018-12-16T05:47:17.203Z,31.00
2018-12-16T05:48:17.184Z,31.00
2018-12-16T05:49:17.167Z,30.70
2018-12-16T05:50:17.152Z,30.60
2018-12-16T05:51:17.132Z,73.70
2018-12-16T05:52:17.114Z,30.00
2018-12-16T05:53:17.097Z,30.80
2018-12-16T05:54:17.082Z,30.40
2018-12-16T05:55:17.062Z,30.80
2018-12-16T05:56:17.044Z,29.70
2018-12-16T05:57:17.027Z,30.50
2018-12-16T05:58:17.012Z,30.90
2018-12-16T05:59:16.992Z,27.30
2018-12-16T06:00:16.976Z,29.60
2018-12-16T06:01:16.957Z,29.50
2018-12-16T06:02:16.941Z,28.20
2018-12-16T06:03:16.924Z,27.20
2018-12-16T06:04:16.906Z,28.40
2018-12-16T06:05:16.888Z,28.60
2018-12-16T06:06:16.871Z,30.20
2018-12-16T06:07:16.853Z,29.90
2018-12-16T06:08:16.838Z,27.10
2018-12-16T06:09:16.820Z,30.50
2018-12-16T06:10:16.801Z,30.60
2018-12-16T06:11:16.788Z,30.20
2018-12-16T06:12:16.766Z,29.70
2018-12-16T06:13:16.749Z,29.10
2018-12-16T06:14:16.733Z,28.20
2018-12-16T06:15:16.714Z,27.50
2018-12-16T06:16:16.696Z,27.10
2018-12-16T06:17:16.684Z,27.70
2018-12-16T06:18:16.663Z,27.60
2018-12-16T06:19:16.645Z,27.50
2018-12-16T06:20:16.628Z,28.40
2018-12-16T06:21:16.611Z,31.10
2018-12-16T06:22:16.595Z,29.60
2018-12-16T06:23:16.578Z,30.50
2018-12-16T06:24:16.558Z,30.40
2018-12-16T06:25:16.540Z,29.20
2018-12-16T06:26:16.522Z,29.10
2018-12-16T06:27:16.505Z,28.60
2018-12-16T06:28:16.487Z,27.90
2018-12-16T06:29:16.472Z,28.30
2018-12-16T06:30:16.454Z,26.90
2018-12-16T06:31:16.437Z,27.40
2018-12-16T06:32:16.422Z,41.50
2018-12-16T06:33:16.403Z,27.70
2018-12-16T06:34:16.388Z,24.20
2018-12-16T06:35:16.369Z,24.20
2018-12-16T06:36:16.352Z,26.00
2018-12-16T06:37:16.333Z,26.00
2018-12-16T06:38:16.316Z,26.20
2018-12-16T06:39:16.298Z,27.40
2018-12-16T06:40:16.283Z,25.80
2018-12-16T06:41:16.264Z,25.30
2018-12-16T06:42:16.250Z,25.00
2018-12-16T06:43:16.232Z,24.20
2018-12-16T06:44:16.214Z,24.30
2018-12-16T06:45:16.199Z,24.30
2018-12-16T06:46:16.180Z,22.80
2018-12-16T06:47:16.163Z,24.10
2018-12-16T06:48:17.528Z,22.60
2018-12-16T06:49:16.130Z,21.90
2018-12-16T06:50:16.113Z,22.40
2018-12-16T06:51:16.093Z,21.50
2018-12-16T06:52:16.075Z,20.80
2018-12-16T06:53:16.061Z,21.00
2018-12-16T06:54:16.043Z,21.10
2018-12-16T06:55:16.025Z,19.90
2018-12-16T06:56:16.008Z,16.90
2018-12-16T06:57:15.992Z,18.60
2018-12-16T06:58:15.974Z,18.90
2018-12-16T06:59:15.956Z,17.70
2018-12-16T07:00:15.940Z,17.10
2018-12-16T07:01:16.122Z,15.30
2018-12-16T07:02:15.905Z,15.20
2018-12-16T07:03:15.888Z,15.30
2018-12-16T07:04:15.874Z,14.70
2018-12-16T07:05:15.856Z,14.10
2018-12-16T07:06:15.838Z,15.50
2018-12-16T07:07:15.820Z,15.40
2018-12-16T07:08:15.804Z,14.90
2018-12-16T07:09:15.789Z,14.70
2018-12-16T07:10:15.772Z,13.80
2018-12-16T07:11:15.755Z,15.10
2018-12-16T07:12:15.738Z,13.90
2018-12-16T07:13:15.718Z,15.30
2018-12-16T07:14:15.704Z,14.00
2018-12-16T07:15:15.690Z,13.40
2018-12-16T07:16:15.672Z,13.90
2018-12-16T07:17:15.653Z,12.80
2018-12-16T07:18:15.635Z,12.90
2018-12-16T07:19:15.617Z,12.60
2018-12-16T07:20:15.603Z,11.90
2018-12-16T07:21:15.582Z,12.60
2018-12-16T07:22:15.567Z,12.10
2018-12-16T07:23:15.578Z,11.00
2018-12-16T07:24:15.530Z,11.20
2018-12-16T07:25:15.515Z,10.30
2018-12-16T07:26:15.500Z,10.60
2018-12-16T07:27:15.515Z,10.60
2018-12-16T07:28:16.627Z,11.50
2018-12-16T07:29:15.470Z,11.10
2018-12-16T07:30:15.432Z,10.80
2018-12-16T07:31:15.416Z,11.80
2018-12-16T07:32:15.398Z,11.80
2018-12-16T07:33:15.381Z,12.30
2018-12-16T07:34:15.366Z,12.50
2018-12-16T07:35:15.348Z,11.00
2018-12-16T07:36:15.332Z,11.10
2018-12-16T07:37:19.082Z,10.90
2018-12-16T07:38:15.318Z,10.90
2018-12-16T07:39:15.279Z,11.60
2018-12-16T07:40:15.262Z,10.80
2018-12-16T07:41:15.286Z,12.00
2018-12-16T07:42:15.229Z,10.60
2018-12-16T07:43:15.233Z,11.70
2018-12-16T07:44:15.197Z,11.20
2018-12-16T07:45:15.180Z,10.80
2018-12-16T07:46:15.163Z,10.90
2018-12-16T07:47:15.188Z,11.40
2018-12-16T07:48:15.129Z,11.40
2018-12-16T07:49:15.111Z,14.30
2018-12-16T07:50:15.098Z,11.50
2018-12-16T07:51:15.100Z,12.30
2018-12-16T07:52:15.060Z,11.60
2018-12-16T07:53:15.045Z,11.00
2018-12-16T07:54:16.172Z,11.40
2018-12-16T07:55:15.012Z,11.10
2018-12-16T07:56:14.995Z,12.60
2018-12-16T07:57:14.995Z,10.60
2018-12-16T07:58:14.962Z,11.80
2018-12-16T07:59:14.943Z,11.70
2018-12-16T08:00:14.928Z,11.00
2018-12-16T08:01:14.913Z,11.50
2018-12-16T08:02:14.934Z,11.30
2018-12-16T08:03:14.880Z,10.90
2018-12-16T08:04:14.862Z,11.10
2018-12-16T08:05:14.849Z,11.50
2018-12-16T08:06:14.828Z,12.00
2018-12-16T08:07:14.811Z,12.00
2018-12-16T08:08:14.800Z,11.80
2018-12-16T08:09:14.779Z,12.10
2018-12-16T08:10:14.763Z,11.80
2018-12-16T08:11:14.745Z,12.40
2018-12-16T08:12:14.729Z,12.70
2018-12-16T08:13:14.711Z,11.90
2018-12-16T08:14:14.695Z,12.10
2018-12-16T08:15:14.677Z,11.20
2018-12-16T08:16:14.661Z,12.00
2018-12-16T08:17:14.648Z,11.20
2018-12-16T08:18:14.631Z,12.00
2018-12-16T08:19:14.616Z,12.20
2018-12-16T08:20:14.599Z,11.90
2018-12-16T08:21:14.579Z,11.90
2018-12-16T08:22:14.562Z,12.10
2018-12-16T08:23:14.546Z,11.90
2018-12-16T08:24:14.531Z,11.80
2018-12-16T08:25:14.514Z,12.60
2018-12-16T08:26:14.496Z,12.60
2018-12-16T08:27:14.480Z,12.50
2018-12-16T08:28:14.464Z,13.50
2018-12-16T08:29:14.448Z,12.60
2018-12-16T08:30:14.435Z,11.80
2018-12-16T08:31:14.415Z,11.30
2018-12-16T08:32:14.399Z,11.00
2018-12-16T08:33:14.384Z,11.40
2018-12-16T08:34:14.367Z,11.50
2018-12-16T08:35:14.351Z,12.50
2018-12-16T08:36:14.335Z,11.80
2018-12-16T08:37:14.317Z,12.20
2018-12-16T08:38:14.302Z,12.30
2018-12-16T08:39:14.286Z,12.30
2018-12-16T08:40:14.269Z,12.40
2018-12-16T08:41:14.251Z,12.40
2018-12-16T08:42:14.235Z,11.90
2018-12-16T08:43:14.220Z,12.60
2018-12-16T08:44:14.204Z,13.00
2018-12-16T08:45:14.185Z,13.20
2018-12-16T08:46:14.170Z,12.10
2018-12-16T08:47:14.153Z,11.70
2018-12-16T08:48:14.139Z,12.00
2018-12-16T08:49:14.121Z,12.00
2018-12-16T08:50:14.105Z,12.00
2018-12-16T08:51:14.087Z,11.60
2018-12-16T08:52:14.071Z,11.70
2018-12-16T08:53:14.056Z,12.00
2018-12-16T08:54:14.039Z,11.70
2018-12-16T08:55:14.023Z,12.60
2018-12-16T08:56:14.008Z,12.30
2018-12-16T08:57:13.989Z,12.90
2018-12-16T08:58:13.974Z,12.50
2018-12-16T08:59:13.956Z,12.10
2018-12-16T09:00:13.942Z,13.10
2018-12-16T09:01:13.923Z,12.80
2018-12-16T09:02:13.908Z,12.10
2018-12-16T09:03:13.892Z,12.50
2018-12-16T09:04:13.873Z,12.00
2018-12-16T09:05:13.858Z,11.90
2018-12-16T09:06:13.843Z,11.90
2018-12-16T09:07:13.824Z,11.80
2018-12-16T09:08:13.813Z,11.60
2018-12-16T09:09:13.794Z,11.50
2018-12-16T09:10:13.780Z,11.20
2018-12-16T09:11:13.760Z,12.10
2018-12-16T09:12:13.743Z,11.80
2018-12-16T09:13:13.727Z,12.10
2018-12-16T09:14:13.711Z,12.40
2018-12-16T09:15:13.696Z,12.40
2018-12-16T09:16:13.678Z,11.90
2018-12-16T09:17:13.661Z,12.30
2018-12-16T09:18:13.648Z,12.00
2018-12-16T09:19:13.631Z,11.50
2018-12-16T09:20:13.614Z,12.40
2018-12-16T09:21:13.599Z,12.10
2018-12-16T09:22:13.581Z,12.80
2018-12-16T09:23:13.566Z,11.60
2018-12-16T09:24:13.550Z,12.30
2018-12-16T09:25:13.534Z,12.00
2018-12-16T09:26:13.516Z,12.30
2018-12-16T09:27:13.501Z,13.30
2018-12-16T09:28:13.487Z,13.60
2018-12-16T09:29:13.467Z,12.70
2018-12-16T09:30:13.453Z,12.30
2018-12-16T09:31:13.435Z,13.40
2018-12-16T09:32:13.419Z,13.30
2018-12-16T09:33:13.406Z,11.90
2018-12-16T09:34:13.387Z,12.10
2018-12-16T09:35:13.374Z,12.40
2018-12-16T09:36:13.357Z,12.60
2018-12-16T09:37:13.339Z,13.10
2018-12-16T09:38:13.326Z,12.80
2018-12-16T09:39:13.306Z,12.20
2018-12-16T09:40:13.293Z,13.10
2018-12-16T09:41:13.276Z,11.80
2018-12-16T09:42:13.262Z,13.30
2018-12-16T09:43:13.244Z,11.90
2018-12-16T09:44:13.230Z,12.30
2018-12-16T09:45:13.213Z,12.70
2018-12-16T09:46:13.199Z,13.00
2018-12-16T09:47:13.182Z,13.60
2018-12-16T09:48:13.164Z,12.80
2018-12-16T09:49:13.148Z,13.00
2018-12-16T09:50:13.133Z,12.90
2018-12-16T09:51:13.116Z,12.00
2018-12-16T09:52:13.099Z,13.40
2018-12-16T09:53:13.083Z,13.20
2018-12-16T09:54:13.071Z,13.70
2018-12-16T09:55:13.055Z,12.90
2018-12-16T09:56:13.035Z,14.60
2018-12-16T09:57:13.020Z,13.70
2018-12-16T09:58:13.007Z,12.70
2018-12-16T09:59:12.998Z,13.50
2018-12-16T10:00:12.971Z,12.90
2018-12-16T10:01:12.955Z,13.10
2018-12-16T10:02:12.940Z,13.40
2018-12-16T10:03:12.922Z,13.20
2018-12-16T10:04:12.907Z,14.00
2018-12-16T10:05:12.892Z,14.20
2018-12-16T10:06:12.877Z,13.70
2018-12-16T10:07:12.861Z,14.80
2018-12-16T10:08:12.844Z,14.30
2018-12-16T10:09:12.829Z,14.40
2018-12-16T10:10:12.815Z,15.10
2018-12-16T10:11:12.795Z,15.40
2018-12-16T10:12:12.781Z,15.00
2018-12-16T10:13:12.768Z,14.80
2018-12-16T10:14:12.752Z,15.30
2018-12-16T10:15:12.733Z,15.60
2018-12-16T10:16:12.718Z,16.00
2018-12-16T10:17:12.703Z,16.30
2018-12-16T10:18:12.686Z,16.30
2018-12-16T10:19:12.670Z,15.60
2018-12-16T10:20:12.655Z,15.90
2018-12-16T10:21:12.650Z,15.00
2018-12-16T10:22:12.622Z,15.70
2018-12-16T10:23:12.604Z,16.50
2018-12-16T10:24:12.591Z,15.30
2018-12-16T10:25:12.574Z,15.90
2018-12-16T10:26:12.560Z,16.80
2018-12-16T10:27:12.543Z,15.40
2018-12-16T10:28:12.526Z,16.60
2018-12-16T10:29:12.512Z,15.80
2018-12-16T10:30:12.496Z,16.20
2018-12-16T10:31:12.491Z,15.30
2018-12-16T10:32:12.664Z,15.70
2018-12-16T10:33:12.448Z,16.60
2018-12-16T10:34:12.431Z,15.50
2018-12-16T10:35:12.415Z,16.10
2018-12-16T10:36:12.400Z,14.50
2018-12-16T10:37:12.383Z,16.00
2018-12-16T10:38:12.367Z,16.20
2018-12-16T10:39:12.351Z,15.00
2018-12-16T10:40:12.337Z,16.00
2018-12-16T10:41:12.320Z,17.10
2018-12-16T10:42:12.306Z,17.20
2018-12-16T10:43:12.289Z,16.30
2018-12-16T10:44:12.273Z,16.70
2018-12-16T10:45:12.258Z,17.10
2018-12-16T10:46:12.264Z,16.50
2018-12-16T10:47:12.225Z,17.00
2018-12-16T10:48:13.278Z,16.40
2018-12-16T10:49:12.193Z,16.20
2018-12-16T10:50:12.179Z,16.20
2018-12-16T10:51:12.160Z,16.10
2018-12-16T10:52:12.146Z,15.90
2018-12-16T10:53:12.131Z,15.80
2018-12-16T10:54:12.115Z,16.20
2018-12-16T10:55:12.098Z,16.30
2018-12-16T10:56:12.084Z,17.10
2018-12-16T10:57:12.070Z,17.50
2018-12-16T10:58:12.050Z,17.10
2018-12-16T10:59:12.034Z,18.10
2018-12-16T11:00:12.020Z,17.70
2018-12-16T11:01:12.002Z,17.10
2018-12-16T11:02:11.988Z,17.80
2018-12-16T11:03:11.970Z,18.10
2018-12-16T11:04:11.957Z,17.20
2018-12-16T11:05:11.941Z,16.60
2018-12-16T11:06:11.924Z,17.90
2018-12-16T11:07:11.909Z,17.60
2018-12-16T11:08:11.899Z,17.50
2018-12-16T11:09:11.877Z,17.30
2018-12-16T11:10:11.861Z,16.60
2018-12-16T11:11:11.846Z,17.80
2018-12-16T11:12:11.827Z,17.70
2018-12-16T11:13:11.814Z,17.30
2018-12-16T11:14:11.797Z,17.40
2018-12-16T11:15:11.782Z,17.90
2018-12-16T11:16:11.766Z,17.60
2018-12-16T11:17:11.751Z,18.10
2018-12-16T11:18:11.734Z,19.10
2018-12-16T11:19:11.717Z,17.30
2018-12-16T11:20:11.704Z,18.90
2018-12-16T11:21:11.689Z,18.10
2018-12-16T11:22:11.671Z,18.60
2018-12-16T11:23:11.661Z,17.40
2018-12-16T11:24:11.640Z,19.70
2018-12-16T11:25:11.623Z,19.70
2018-12-16T11:26:11.608Z,19.40
2018-12-16T11:27:11.595Z,16.50
2018-12-16T11:28:11.577Z,18.10
2018-12-16T11:29:11.562Z,18.60
2018-12-16T11:30:11.547Z,17.90
2018-12-16T11:31:11.530Z,17.70
2018-12-16T11:32:11.516Z,18.70
2018-12-16T11:33:11.497Z,18.20
2018-12-16T11:34:11.484Z,16.80
2018-12-16T11:35:11.467Z,16.90
2018-12-16T11:36:11.451Z,15.90
2018-12-16T11:37:11.436Z,17.20
2018-12-16T11:38:11.421Z,17.00
2018-12-16T11:39:11.402Z,17.40
2018-12-16T11:40:11.388Z,17.50
2018-12-16T11:41:11.371Z,18.00
2018-12-16T11:42:11.355Z,17.30
2018-12-16T11:43:11.339Z,17.90
2018-12-16T11:44:11.326Z,17.60
2018-12-16T11:45:11.308Z,18.40
2018-12-16T11:46:11.294Z,17.80
2018-12-16T11:47:11.284Z,17.40
2018-12-16T11:48:11.261Z,17.70
2018-12-16T11:49:11.247Z,17.80
2018-12-16T11:50:11.230Z,17.70
2018-12-16T11:51:11.213Z,17.20
2018-12-16T11:52:11.198Z,18.80
2018-12-16T11:53:11.184Z,19.00
2018-12-16T11:54:11.168Z,18.80
2018-12-16T11:55:12.870Z,18.80
2018-12-16T11:56:11.135Z,17.10
2018-12-16T11:57:11.121Z,18.80
2018-12-16T11:58:11.106Z,17.80
2018-12-16T11:59:11.089Z,18.50
2018-12-16T12:00:11.076Z,18.10
2018-12-16T12:01:11.061Z,17.50
2018-12-16T12:02:11.045Z,17.60
2018-12-16T12:03:11.027Z,19.10
2018-12-16T12:04:11.012Z,18.20
2018-12-16T12:05:11.048Z,18.90
2018-12-16T12:06:10.981Z,19.20
2018-12-16T12:07:10.966Z,18.40
2018-12-16T12:08:10.948Z,17.60
2018-12-16T12:09:10.931Z,17.30
2018-12-16T12:10:10.918Z,16.50
2018-12-16T12:11:10.899Z,17.30
2018-12-16T12:12:10.883Z,16.80
2018-12-16T12:13:10.874Z,16.00
2018-12-16T12:14:10.857Z,17.60
2018-12-16T12:15:10.836Z,16.50
2018-12-16T12:16:10.824Z,17.50
2018-12-16T12:17:10.806Z,16.60
2018-12-16T12:18:10.794Z,16.50
2018-12-16T12:19:10.776Z,16.40
2018-12-16T12:20:10.759Z,16.00
2018-12-16T12:21:10.745Z,15.80
2018-12-16T12:22:10.730Z,15.90
2018-12-16T12:23:10.713Z,16.40
2018-12-16T12:24:10.699Z,16.00
2018-12-16T12:25:10.684Z,16.20
2018-12-16T12:26:10.669Z,15.50
2018-12-16T12:27:10.650Z,16.40
2018-12-16T12:28:10.636Z,15.00
2018-12-16T12:29:10.620Z,15.60
2018-12-16T12:30:10.606Z,15.60
2018-12-16T12:31:10.589Z,16.20
2018-12-16T12:32:10.576Z,15.60
2018-12-16T12:33:10.559Z,15.70
2018-12-16T12:34:10.543Z,16.20
2018-12-16T12:35:10.527Z,16.10
2018-12-16T12:36:10.513Z,16.20
2018-12-16T12:37:10.496Z,15.80
2018-12-16T12:38:10.484Z,16.30
2018-12-16T12:39:10.468Z,17.10
2018-12-16T12:40:10.451Z,17.50
2018-12-16T12:41:10.436Z,17.80
2018-12-16T12:42:10.425Z,16.90
2018-12-16T12:43:10.409Z,15.80
2018-12-16T12:44:10.391Z,16.60
2018-12-16T12:45:10.377Z,16.60
2018-12-16T12:46:10.375Z,15.50
2018-12-16T12:47:10.346Z,16.30
2018-12-16T12:48:10.331Z,16.20
2018-12-16T12:49:10.317Z,16.40
2018-12-16T12:50:10.304Z,17.20
2018-12-16T12:51:10.285Z,17.00
2018-12-16T12:52:10.271Z,17.20